sensor_id;sensor_type;location;lat;lon;timestamp;temperature;humidity
38941;DHT22;43236;47.208;7.518;2022-10-22T00:00:28;17.60;99.90
38941;DHT22;43236;47.208;7.518;2022-10-22T00:03:15;17.50;99.90
38941;DHT22;43236;47.208;7.518;2022-10-22T00:06:02;17.60;99.90
38941;DHT22;43236;47.208;7.518;2022-10-22T00:08:51;17.60;99.90
38941;DHT22;43236;47.208;7.518;2022-10-22T00:11:38;17.60;99.90
38941;DHT22;43236;47.208;7.518;2022-10-22T00:14:26;17.60;99.90
38941;DHT22;43236;47.208;7.518;2022-10-22T00:17:13;17.60;99.90
38941;DHT22;43236;47.208;7.518;2022-10-22T00:20:00;17.60;99.90
38941;DHT22;43236;47.208;7.518;2022-10-22T00:22:48;17.50;99.90
38941;DHT22;43236;47.208;7.518;2022-10-22T00:25:36;17.50;99.90
38941;DHT22;43236;47.208;7.518;2022-10-22T00:28:23;17.50;99.90
38941;DHT22;43236;47.208;7.518;2022-10-22T00:31:11;17.50;99.90
38941;DHT22;43236;47.208;7.518;2022-10-22T00:34:00;17.40;99.90
38941;DHT22;43236;47.208;7.518;2022-10-22T00:36:48;17.40;99.90
38941;DHT22;43236;47.208;7.518;2022-10-22T00:39:35;17.50;99.90
38941;DHT22;43236;47.208;7.518;2022-10-22T00:42:25;17.50;99.90
38941;DHT22;43236;47.208;7.518;2022-10-22T00:45:18;17.50;99.90
38941;DHT22;43236;47.208;7.518;2022-10-22T00:48:08;17.50;99.90
38941;DHT22;43236;47.208;7.518;2022-10-22T00:50:57;17.50;99.90
38941;DHT22;43236;47.208;7.518;2022-10-22T00:53:47;17.50;99.90
38941;DHT22;43236;47.208;7.518;2022-10-22T00:56:37;17.50;99.90
38941;DHT22;43236;47.208;7.518;2022-10-22T00:59:25;17.50;99.90
38941;DHT22;43236;47.208;7.518;2022-10-22T01:02:13;17.50;99.90
38941;DHT22;43236;47.208;7.518;2022-10-22T01:05:01;17.50;99.90
38941;DHT22;43236;47.208;7.518;2022-10-22T01:07:50;17.50;99.90
38941;DHT22;43236;47.208;7.518;2022-10-22T01:10:48;17.50;99.90
38941;DHT22;43236;47.208;7.518;2022-10-22T01:13:46;17.50;99.90
38941;DHT22;43236;47.208;7.518;2022-10-22T01:16:42;17.50;99.90
38941;DHT22;43236;47.208;7.518;2022-10-22T01:19:42;17.40;99.90
38941;DHT22;43236;47.208;7.518;2022-10-22T01:22:34;17.50;99.90
38941;DHT22;43236;47.208;7.518;2022-10-22T01:25:31;17.40;99.90
38941;DHT22;43236;47.208;7.518;2022-10-22T01:28:33;17.50;99.90
38941;DHT22;43236;47.208;7.518;2022-10-22T01:31:21;17.50;99.90
38941;DHT22;43236;47.208;7.518;2022-10-22T01:34:11;17.40;99.90
38941;DHT22;43236;47.208;7.518;2022-10-22T01:37:00;17.60;99.90
38941;DHT22;43236;47.208;7.518;2022-10-22T01:39:48;17.50;99.90
38941;DHT22;43236;47.208;7.518;2022-10-22T01:42:36;17.40;99.90
38941;DHT22;43236;47.208;7.518;2022-10-22T01:45:25;17.40;99.90
38941;DHT22;43236;47.208;7.518;2022-10-22T01:48:24;17.40;99.90
38941;DHT22;43236;47.208;7.518;2022-10-22T01:51:23;17.40;99.90
38941;DHT22;43236;47.208;7.518;2022-10-22T01:54:20;17.40;99.90
38941;DHT22;43236;47.208;7.518;2022-10-22T01:57:18;17.40;99.90
38941;DHT22;43236;47.208;7.518;2022-10-22T02:00:08;17.40;99.90
38941;DHT22;43236;47.208;7.518;2022-10-22T02:03:02;17.40;99.90
38941;DHT22;43236;47.208;7.518;2022-10-22T02:05:54;17.40;99.90
38941;DHT22;43236;47.208;7.518;2022-10-22T02:08:42;17.50;99.90
38941;DHT22;43236;47.208;7.518;2022-10-22T02:11:30;17.50;99.90
38941;DHT22;43236;47.208;7.518;2022-10-22T02:14:18;17.50;99.90
38941;DHT22;43236;47.208;7.518;2022-10-22T02:17:08;17.60;99.90
38941;DHT22;43236;47.208;7.518;2022-10-22T02:20:00;17.50;99.90
38941;DHT22;43236;47.208;7.518;2022-10-22T02:22:49;17.40;99.90
38941;DHT22;43236;47.208;7.518;2022-10-22T02:25:39;17.50;99.90
38941;DHT22;43236;47.208;7.518;2022-10-22T02:28:33;17.40;99.90
38941;DHT22;43236;47.208;7.518;2022-10-22T02:31:25;17.40;99.90
38941;DHT22;43236;47.208;7.518;2022-10-22T02:34:16;17.40;99.90
38941;DHT22;43236;47.208;7.518;2022-10-22T02:37:07;17.40;99.90
38941;DHT22;43236;47.208;7.518;2022-10-22T02:39:55;17.40;99.90
38941;DHT22;43236;47.208;7.518;2022-10-22T02:42:43;17.40;99.90
38941;DHT22;43236;47.208;7.518;2022-10-22T02:45:33;17.40;99.90
38941;DHT22;43236;47.208;7.518;2022-10-22T02:48:20;17.40;99.90
38941;DHT22;43236;47.208;7.518;2022-10-22T02:51:07;17.40;99.90
38941;DHT22;43236;47.208;7.518;2022-10-22T02:53:56;17.50;99.90
38941;DHT22;43236;47.208;7.518;2022-10-22T02:56:43;17.50;99.90
38941;DHT22;43236;47.208;7.518;2022-10-22T02:59:30;17.50;99.90
38941;DHT22;43236;47.208;7.518;2022-10-22T03:02:17;17.50;99.90
38941;DHT22;43236;47.208;7.518;2022-10-22T03:05:05;17.50;99.90
38941;DHT22;43236;47.208;7.518;2022-10-22T03:07:52;17.50;99.90
38941;DHT22;43236;47.208;7.518;2022-10-22T03:10:40;17.50;99.90
38941;DHT22;43236;47.208;7.518;2022-10-22T03:13:27;17.50;99.90
38941;DHT22;43236;47.208;7.518;2022-10-22T03:16:15;17.50;99.90
38941;DHT22;43236;47.208;7.518;2022-10-22T03:19:02;17.50;99.90
38941;DHT22;43236;47.208;7.518;2022-10-22T03:21:52;17.50;99.90
38941;DHT22;43236;47.208;7.518;2022-10-22T03:24:42;17.40;99.90
38941;DHT22;43236;47.208;7.518;2022-10-22T03:27:32;17.40;99.90
38941;DHT22;43236;47.208;7.518;2022-10-22T03:30:20;17.40;99.90
38941;DHT22;43236;47.208;7.518;2022-10-22T03:33:07;17.40;99.90
38941;DHT22;43236;47.208;7.518;2022-10-22T03:35:54;17.30;99.90
38941;DHT22;43236;47.208;7.518;2022-10-22T03:38:41;17.30;99.90
38941;DHT22;43236;47.208;7.518;2022-10-22T03:41:29;17.30;99.90
38941;DHT22;43236;47.208;7.518;2022-10-22T03:44:17;17.30;99.90
38941;DHT22;43236;47.208;7.518;2022-10-22T03:47:06;17.30;99.90
38941;DHT22;43236;47.208;7.518;2022-10-22T03:49:53;17.30;99.90
38941;DHT22;43236;47.208;7.518;2022-10-22T03:52:40;17.30;99.90
38941;DHT22;43236;47.208;7.518;2022-10-22T03:55:27;17.30;99.90
38941;DHT22;43236;47.208;7.518;2022-10-22T03:58:14;17.30;99.90
38941;DHT22;43236;47.208;7.518;2022-10-22T04:01:05;17.30;99.90
38941;DHT22;43236;47.208;7.518;2022-10-22T04:03:52;17.30;99.90
38941;DHT22;43236;47.208;7.518;2022-10-22T04:06:39;17.30;99.90
38941;DHT22;43236;47.208;7.518;2022-10-22T04:09:27;17.20;99.90
38941;DHT22;43236;47.208;7.518;2022-10-22T04:12:16;17.30;99.90
38941;DHT22;43236;47.208;7.518;2022-10-22T04:15:05;17.20;99.90
38941;DHT22;43236;47.208;7.518;2022-10-22T04:17:54;17.20;99.90
38941;DHT22;43236;47.208;7.518;2022-10-22T04:20:41;17.20;99.90
38941;DHT22;43236;47.208;7.518;2022-10-22T04:23:28;17.20;99.90
38941;DHT22;43236;47.208;7.518;2022-10-22T04:26:16;17.20;99.90
38941;DHT22;43236;47.208;7.518;2022-10-22T04:29:05;17.20;99.90
38941;DHT22;43236;47.208;7.518;2022-10-22T04:31:53;17.20;99.90
38941;DHT22;43236;47.208;7.518;2022-10-22T04:34:41;17.10;99.90
38941;DHT22;43236;47.208;7.518;2022-10-22T04:37:28;17.10;99.90
38941;DHT22;43236;47.208;7.518;2022-10-22T04:40:15;17.10;99.90
38941;DHT22;43236;47.208;7.518;2022-10-22T04:43:02;17.10;99.90
38941;DHT22;43236;47.208;7.518;2022-10-22T04:45:49;17.20;99.90
38941;DHT22;43236;47.208;7.518;2022-10-22T04:48:37;17.30;99.90
38941;DHT22;43236;47.208;7.518;2022-10-22T04:51:26;17.10;99.90
38941;DHT22;43236;47.208;7.518;2022-10-22T04:54:13;17.20;99.90
38941;DHT22;43236;47.208;7.518;2022-10-22T04:57:00;17.20;99.90
38941;DHT22;43236;47.208;7.518;2022-10-22T04:59:47;17.20;99.90
38941;DHT22;43236;47.208;7.518;2022-10-22T05:02:34;17.20;99.90
38941;DHT22;43236;47.208;7.518;2022-10-22T05:05:21;17.20;99.90
38941;DHT22;43236;47.208;7.518;2022-10-22T05:08:09;17.30;99.90
38941;DHT22;43236;47.208;7.518;2022-10-22T05:10:56;17.20;99.90
38941;DHT22;43236;47.208;7.518;2022-10-22T05:13:44;17.30;99.90
38941;DHT22;43236;47.208;7.518;2022-10-22T05:16:32;17.30;99.90
38941;DHT22;43236;47.208;7.518;2022-10-22T05:19:22;17.30;99.90
38941;DHT22;43236;47.208;7.518;2022-10-22T05:22:10;17.30;99.90
38941;DHT22;43236;47.208;7.518;2022-10-22T05:24:59;17.20;99.90
38941;DHT22;43236;47.208;7.518;2022-10-22T05:27:48;17.20;99.90
38941;DHT22;43236;47.208;7.518;2022-10-22T05:30:35;17.20;99.90
38941;DHT22;43236;47.208;7.518;2022-10-22T05:33:22;17.30;99.90
38941;DHT22;43236;47.208;7.518;2022-10-22T05:36:12;17.20;99.90
38941;DHT22;43236;47.208;7.518;2022-10-22T05:38:59;17.30;99.90
38941;DHT22;43236;47.208;7.518;2022-10-22T05:41:48;17.30;99.90
38941;DHT22;43236;47.208;7.518;2022-10-22T05:44:35;17.30;99.90
38941;DHT22;43236;47.208;7.518;2022-10-22T05:47:23;17.20;99.90
38941;DHT22;43236;47.208;7.518;2022-10-22T05:50:11;17.20;99.90
38941;DHT22;43236;47.208;7.518;2022-10-22T05:52:58;17.10;99.90
38941;DHT22;43236;47.208;7.518;2022-10-22T05:55:45;17.10;99.90
38941;DHT22;43236;47.208;7.518;2022-10-22T05:58:34;17.10;99.90
38941;DHT22;43236;47.208;7.518;2022-10-22T06:01:23;17.20;99.90
38941;DHT22;43236;47.208;7.518;2022-10-22T06:04:11;17.10;99.90
38941;DHT22;43236;47.208;7.518;2022-10-22T06:06:59;17.20;99.90
38941;DHT22;43236;47.208;7.518;2022-10-22T06:09:46;17.20;99.90
38941;DHT22;43236;47.208;7.518;2022-10-22T06:12:35;17.20;99.90
38941;DHT22;43236;47.208;7.518;2022-10-22T06:15:23;17.20;99.90
38941;DHT22;43236;47.208;7.518;2022-10-22T06:18:10;17.20;99.90
38941;DHT22;43236;47.208;7.518;2022-10-22T06:21:03;17.30;99.90
38941;DHT22;43236;47.208;7.518;2022-10-22T06:23:50;17.20;99.90
38941;DHT22;43236;47.208;7.518;2022-10-22T06:26:37;17.30;99.90
38941;DHT22;43236;47.208;7.518;2022-10-22T06:29:24;17.30;99.90
38941;DHT22;43236;47.208;7.518;2022-10-22T06:32:13;17.30;99.90
38941;DHT22;43236;47.208;7.518;2022-10-22T06:35:00;17.30;99.90
38941;DHT22;43236;47.208;7.518;2022-10-22T06:37:47;17.30;99.90
38941;DHT22;43236;47.208;7.518;2022-10-22T06:40:34;17.30;99.90
38941;DHT22;43236;47.208;7.518;2022-10-22T06:43:21;17.40;99.90
38941;DHT22;43236;47.208;7.518;2022-10-22T06:46:08;17.40;99.90
38941;DHT22;43236;47.208;7.518;2022-10-22T06:48:59;17.40;99.90
38941;DHT22;43236;47.208;7.518;2022-10-22T06:51:49;17.40;99.90
38941;DHT22;43236;47.208;7.518;2022-10-22T06:54:36;17.40;99.90
38941;DHT22;43236;47.208;7.518;2022-10-22T06:57:23;17.40;99.90
38941;DHT22;43236;47.208;7.518;2022-10-22T07:00:11;17.50;99.90
38941;DHT22;43236;47.208;7.518;2022-10-22T07:02:58;17.40;99.90
38941;DHT22;43236;47.208;7.518;2022-10-22T07:05:47;17.40;99.90
38941;DHT22;43236;47.208;7.518;2022-10-22T07:08:34;17.40;99.90
38941;DHT22;43236;47.208;7.518;2022-10-22T07:11:23;17.40;99.90
38941;DHT22;43236;47.208;7.518;2022-10-22T07:14:11;17.50;99.90
38941;DHT22;43236;47.208;7.518;2022-10-22T07:16:58;17.50;99.90
38941;DHT22;43236;47.208;7.518;2022-10-22T07:19:46;17.60;99.90
38941;DHT22;43236;47.208;7.518;2022-10-22T07:22:34;17.40;99.90
38941;DHT22;43236;47.208;7.518;2022-10-22T07:25:21;17.40;99.90
38941;DHT22;43236;47.208;7.518;2022-10-22T07:28:08;17.40;99.90
38941;DHT22;43236;47.208;7.518;2022-10-22T07:30:55;17.50;99.90
38941;DHT22;43236;47.208;7.518;2022-10-22T07:33:43;17.50;99.90
38941;DHT22;43236;47.208;7.518;2022-10-22T07:36:30;17.50;99.90
38941;DHT22;43236;47.208;7.518;2022-10-22T07:39:18;17.50;99.90
38941;DHT22;43236;47.208;7.518;2022-10-22T07:42:05;17.50;99.90
38941;DHT22;43236;47.208;7.518;2022-10-22T07:44:52;17.50;99.90
38941;DHT22;43236;47.208;7.518;2022-10-22T07:47:39;17.40;99.90
38941;DHT22;43236;47.208;7.518;2022-10-22T07:50:27;17.40;99.90
38941;DHT22;43236;47.208;7.518;2022-10-22T07:53:14;17.50;99.90
38941;DHT22;43236;47.208;7.518;2022-10-22T07:56:02;17.40;99.90
38941;DHT22;43236;47.208;7.518;2022-10-22T07:58:49;17.40;99.90
38941;DHT22;43236;47.208;7.518;2022-10-22T08:01:37;17.50;99.90
38941;DHT22;43236;47.208;7.518;2022-10-22T08:04:24;17.50;99.90
38941;DHT22;43236;47.208;7.518;2022-10-22T08:07:11;17.50;99.90
38941;DHT22;43236;47.208;7.518;2022-10-22T08:09:58;17.70;99.90
38941;DHT22;43236;47.208;7.518;2022-10-22T08:12:46;17.60;99.90
38941;DHT22;43236;47.208;7.518;2022-10-22T08:15:33;17.70;99.90
38941;DHT22;43236;47.208;7.518;2022-10-22T08:18:21;17.70;99.90
38941;DHT22;43236;47.208;7.518;2022-10-22T08:21:08;17.70;99.90
38941;DHT22;43236;47.208;7.518;2022-10-22T08:23:55;17.70;99.90
38941;DHT22;43236;47.208;7.518;2022-10-22T08:26:42;17.70;99.90
38941;DHT22;43236;47.208;7.518;2022-10-22T08:29:30;17.80;99.90
38941;DHT22;43236;47.208;7.518;2022-10-22T08:32:17;17.60;99.90
38941;DHT22;43236;47.208;7.518;2022-10-22T08:35:05;17.50;99.90
38941;DHT22;43236;47.208;7.518;2022-10-22T08:37:52;17.50;99.90
38941;DHT22;43236;47.208;7.518;2022-10-22T08:40:39;17.50;99.90
38941;DHT22;43236;47.208;7.518;2022-10-22T08:43:45;17.50;99.90
38941;DHT22;43236;47.208;7.518;2022-10-22T08:46:46;17.60;99.90
38941;DHT22;43236;47.208;7.518;2022-10-22T08:49:39;17.50;99.90
38941;DHT22;43236;47.208;7.518;2022-10-22T08:52:29;17.50;99.90
38941;DHT22;43236;47.208;7.518;2022-10-22T08:55:18;17.60;99.90
38941;DHT22;43236;47.208;7.518;2022-10-22T08:58:14;17.60;99.90
38941;DHT22;43236;47.208;7.518;2022-10-22T09:01:06;17.50;99.90
38941;DHT22;43236;47.208;7.518;2022-10-22T09:04:05;17.50;99.90
38941;DHT22;43236;47.208;7.518;2022-10-22T09:06:54;17.50;99.90
38941;DHT22;43236;47.208;7.518;2022-10-22T09:09:48;17.50;99.90
38941;DHT22;43236;47.208;7.518;2022-10-22T09:12:36;17.50;99.90
38941;DHT22;43236;47.208;7.518;2022-10-22T09:15:23;17.60;99.90
38941;DHT22;43236;47.208;7.518;2022-10-22T09:18:22;17.70;99.90
38941;DHT22;43236;47.208;7.518;2022-10-22T09:21:21;17.60;99.90
38941;DHT22;43236;47.208;7.518;2022-10-22T09:24:16;17.60;99.90
38941;DHT22;43236;47.208;7.518;2022-10-22T09:27:09;17.60;99.90
38941;DHT22;43236;47.208;7.518;2022-10-22T09:29:56;17.60;99.90
38941;DHT22;43236;47.208;7.518;2022-10-22T09:32:44;17.60;99.90
38941;DHT22;43236;47.208;7.518;2022-10-22T09:35:33;17.70;99.90
38941;DHT22;43236;47.208;7.518;2022-10-22T09:38:30;17.70;99.90
38941;DHT22;43236;47.208;7.518;2022-10-22T09:41:20;17.70;99.90
38941;DHT22;43236;47.208;7.518;2022-10-22T09:44:11;17.80;99.90
38941;DHT22;43236;47.208;7.518;2022-10-22T09:46:59;17.80;99.90
38941;DHT22;43236;47.208;7.518;2022-10-22T09:49:46;17.50;99.90
38941;DHT22;43236;47.208;7.518;2022-10-22T09:52:33;17.90;99.90
38941;DHT22;43236;47.208;7.518;2022-10-22T09:55:24;17.80;99.90
38941;DHT22;43236;47.208;7.518;2022-10-22T09:58:12;17.80;99.90
38941;DHT22;43236;47.208;7.518;2022-10-22T10:01:00;17.80;99.90
38941;DHT22;43236;47.208;7.518;2022-10-22T10:03:48;17.90;99.90
38941;DHT22;43236;47.208;7.518;2022-10-22T10:06:37;18.00;99.90
38941;DHT22;43236;47.208;7.518;2022-10-22T10:09:27;18.00;99.90
38941;DHT22;43236;47.208;7.518;2022-10-22T10:12:35;18.30;99.90
38941;DHT22;43236;47.208;7.518;2022-10-22T10:15:28;18.10;99.90
38941;DHT22;43236;47.208;7.518;2022-10-22T10:18:29;18.20;99.90
38941;DHT22;43236;47.208;7.518;2022-10-22T10:21:28;18.10;99.90
38941;DHT22;43236;47.208;7.518;2022-10-22T10:24:22;18.10;99.90
38941;DHT22;43236;47.208;7.518;2022-10-22T10:27:19;18.10;99.90
38941;DHT22;43236;47.208;7.518;2022-10-22T10:30:13;18.10;99.90
38941;DHT22;43236;47.208;7.518;2022-10-22T10:33:13;18.20;99.90
38941;DHT22;43236;47.208;7.518;2022-10-22T10:36:07;18.20;99.90
38941;DHT22;43236;47.208;7.518;2022-10-22T10:39:02;18.20;99.90
38941;DHT22;43236;47.208;7.518;2022-10-22T10:41:54;18.20;99.90
38941;DHT22;43236;47.208;7.518;2022-10-22T10:44:54;18.30;99.90
38941;DHT22;43236;47.208;7.518;2022-10-22T10:48:00;18.30;99.90
38941;DHT22;43236;47.208;7.518;2022-10-22T10:50:59;18.30;99.90
38941;DHT22;43236;47.208;7.518;2022-10-22T10:54:03;18.30;99.90
38941;DHT22;43236;47.208;7.518;2022-10-22T10:56:56;18.30;99.90
38941;DHT22;43236;47.208;7.518;2022-10-22T10:59:53;18.40;99.90
38941;DHT22;43236;47.208;7.518;2022-10-22T11:03:19;18.40;99.90
38941;DHT22;43236;47.208;7.518;2022-10-22T11:06:14;18.40;99.90
38941;DHT22;43236;47.208;7.518;2022-10-22T11:09:06;18.40;99.90
38941;DHT22;43236;47.208;7.518;2022-10-22T11:11:57;18.50;99.90
38941;DHT22;43236;47.208;7.518;2022-10-22T11:14:57;18.50;99.90
38941;DHT22;43236;47.208;7.518;2022-10-22T11:17:46;18.50;99.90
38941;DHT22;43236;47.208;7.518;2022-10-22T11:20:47;18.50;99.90
38941;DHT22;43236;47.208;7.518;2022-10-22T11:23:38;18.60;99.90
38941;DHT22;43236;47.208;7.518;2022-10-22T11:26:40;18.60;99.90
38941;DHT22;43236;47.208;7.518;2022-10-22T11:29:35;18.60;99.90
38941;DHT22;43236;47.208;7.518;2022-10-22T11:32:26;18.60;99.90
38941;DHT22;43236;47.208;7.518;2022-10-22T11:35:15;18.70;99.90
38941;DHT22;43236;47.208;7.518;2022-10-22T11:38:06;18.70;99.90
38941;DHT22;43236;47.208;7.518;2022-10-22T11:40:57;18.70;99.90
38941;DHT22;43236;47.208;7.518;2022-10-22T11:43:56;18.70;99.90
38941;DHT22;43236;47.208;7.518;2022-10-22T11:46:45;18.80;99.90
38941;DHT22;43236;47.208;7.518;2022-10-22T11:49:42;18.80;99.90
38941;DHT22;43236;47.208;7.518;2022-10-22T11:52:52;18.80;99.90
38941;DHT22;43236;47.208;7.518;2022-10-22T11:55:45;18.80;99.90
38941;DHT22;43236;47.208;7.518;2022-10-22T11:58:37;18.90;99.90
38941;DHT22;43236;47.208;7.518;2022-10-22T12:01:28;18.90;99.90
38941;DHT22;43236;47.208;7.518;2022-10-22T12:04:39;18.90;99.90
38941;DHT22;43236;47.208;7.518;2022-10-22T12:07:33;19.00;99.90
38941;DHT22;43236;47.208;7.518;2022-10-22T12:10:21;18.90;99.90
38941;DHT22;43236;47.208;7.518;2022-10-22T12:13:17;19.00;99.90
38941;DHT22;43236;47.208;7.518;2022-10-22T12:16:10;19.00;99.90
38941;DHT22;43236;47.208;7.518;2022-10-22T12:19:02;19.00;99.90
38941;DHT22;43236;47.208;7.518;2022-10-22T12:21:52;19.10;99.90
38941;DHT22;43236;47.208;7.518;2022-10-22T12:24:42;19.10;99.90
38941;DHT22;43236;47.208;7.518;2022-10-22T12:27:34;19.10;99.90
38941;DHT22;43236;47.208;7.518;2022-10-22T12:30:25;19.10;99.90
38941;DHT22;43236;47.208;7.518;2022-10-22T12:33:18;19.10;99.90
38941;DHT22;43236;47.208;7.518;2022-10-22T12:36:06;19.20;99.90
38941;DHT22;43236;47.208;7.518;2022-10-22T12:38:53;19.20;99.90
38941;DHT22;43236;47.208;7.518;2022-10-22T12:41:40;19.20;99.90
38941;DHT22;43236;47.208;7.518;2022-10-22T12:44:27;19.20;99.90
38941;DHT22;43236;47.208;7.518;2022-10-22T12:47:18;19.30;99.90
38941;DHT22;43236;47.208;7.518;2022-10-22T12:50:05;19.30;99.90
38941;DHT22;43236;47.208;7.518;2022-10-22T12:52:53;19.30;99.90
38941;DHT22;43236;47.208;7.518;2022-10-22T12:55:41;19.40;99.90
38941;DHT22;43236;47.208;7.518;2022-10-22T12:58:31;19.40;99.90
38941;DHT22;43236;47.208;7.518;2022-10-22T13:01:20;19.40;99.90
38941;DHT22;43236;47.208;7.518;2022-10-22T13:04:20;19.40;99.90
38941;DHT22;43236;47.208;7.518;2022-10-22T13:07:17;19.40;99.90
38941;DHT22;43236;47.208;7.518;2022-10-22T13:10:15;19.50;99.90
38941;DHT22;43236;47.208;7.518;2022-10-22T13:13:03;19.50;99.90
38941;DHT22;43236;47.208;7.518;2022-10-22T13:15:51;19.60;99.90
38941;DHT22;43236;47.208;7.518;2022-10-22T13:18:38;19.70;99.90
38941;DHT22;43236;47.208;7.518;2022-10-22T13:21:32;19.70;99.90
38941;DHT22;43236;47.208;7.518;2022-10-22T13:24:22;19.80;99.90
38941;DHT22;43236;47.208;7.518;2022-10-22T13:27:09;19.80;99.90
38941;DHT22;43236;47.208;7.518;2022-10-22T13:30:00;19.90;99.90
38941;DHT22;43236;47.208;7.518;2022-10-22T13:32:51;19.90;99.90
38941;DHT22;43236;47.208;7.518;2022-10-22T13:35:38;19.90;99.90
38941;DHT22;43236;47.208;7.518;2022-10-22T13:38:28;19.90;99.90
38941;DHT22;43236;47.208;7.518;2022-10-22T13:41:18;20.00;99.90
38941;DHT22;43236;47.208;7.518;2022-10-22T13:44:05;20.00;99.90
38941;DHT22;43236;47.208;7.518;2022-10-22T13:46:53;20.10;99.90
38941;DHT22;43236;47.208;7.518;2022-10-22T13:49:41;20.10;99.90
38941;DHT22;43236;47.208;7.518;2022-10-22T13:52:35;20.10;99.90
38941;DHT22;43236;47.208;7.518;2022-10-22T13:55:27;20.10;99.90
38941;DHT22;43236;47.208;7.518;2022-10-22T13:58:16;20.20;99.90
38941;DHT22;43236;47.208;7.518;2022-10-22T14:01:04;20.20;99.90
38941;DHT22;43236;47.208;7.518;2022-10-22T14:03:55;20.20;99.90
38941;DHT22;43236;47.208;7.518;2022-10-22T14:06:43;20.20;99.90
38941;DHT22;43236;47.208;7.518;2022-10-22T14:09:30;20.10;99.90
38941;DHT22;43236;47.208;7.518;2022-10-22T14:12:18;20.10;99.70
38941;DHT22;43236;47.208;7.518;2022-10-22T14:15:07;20.10;99.90
38941;DHT22;43236;47.208;7.518;2022-10-22T14:17:56;20.10;99.90
38941;DHT22;43236;47.208;7.518;2022-10-22T14:20:45;20.00;99.90
38941;DHT22;43236;47.208;7.518;2022-10-22T14:23:33;20.00;99.90
38941;DHT22;43236;47.208;7.518;2022-10-22T14:26:23;20.10;99.90
38941;DHT22;43236;47.208;7.518;2022-10-22T14:29:13;20.10;99.10
38941;DHT22;43236;47.208;7.518;2022-10-22T14:32:00;20.10;99.90
38941;DHT22;43236;47.208;7.518;2022-10-22T14:34:48;20.30;99.80
38941;DHT22;43236;47.208;7.518;2022-10-22T14:37:35;20.20;99.60
38941;DHT22;43236;47.208;7.518;2022-10-22T14:40:23;20.30;99.40
38941;DHT22;43236;47.208;7.518;2022-10-22T14:43:10;20.30;99.00
38941;DHT22;43236;47.208;7.518;2022-10-22T14:45:59;20.30;99.00
38941;DHT22;43236;47.208;7.518;2022-10-22T14:48:47;20.30;99.50
38941;DHT22;43236;47.208;7.518;2022-10-22T14:51:34;20.20;98.70
38941;DHT22;43236;47.208;7.518;2022-10-22T14:54:21;20.20;98.00
38941;DHT22;43236;47.208;7.518;2022-10-22T14:57:08;20.10;98.80
38941;DHT22;43236;47.208;7.518;2022-10-22T15:00:03;20.10;99.60
38941;DHT22;43236;47.208;7.518;2022-10-22T15:02:52;20.00;99.40
38941;DHT22;43236;47.208;7.518;2022-10-22T15:05:40;19.90;99.90
38941;DHT22;43236;47.208;7.518;2022-10-22T15:08:29;19.90;99.90
38941;DHT22;43236;47.208;7.518;2022-10-22T15:11:16;19.90;99.90
38941;DHT22;43236;47.208;7.518;2022-10-22T15:14:03;19.80;99.90
38941;DHT22;43236;47.208;7.518;2022-10-22T15:16:50;19.70;99.90
38941;DHT22;43236;47.208;7.518;2022-10-22T15:19:39;19.70;99.90
38941;DHT22;43236;47.208;7.518;2022-10-22T15:22:28;19.70;99.90
38941;DHT22;43236;47.208;7.518;2022-10-22T15:25:16;19.70;99.90
38941;DHT22;43236;47.208;7.518;2022-10-22T15:28:03;19.60;99.90
38941;DHT22;43236;47.208;7.518;2022-10-22T15:30:55;19.60;99.90
38941;DHT22;43236;47.208;7.518;2022-10-22T15:33:42;19.60;99.90
38941;DHT22;43236;47.208;7.518;2022-10-22T15:36:31;19.50;99.90
38941;DHT22;43236;47.208;7.518;2022-10-22T15:39:18;19.60;99.90
38941;DHT22;43236;47.208;7.518;2022-10-22T15:42:06;19.50;99.90
38941;DHT22;43236;47.208;7.518;2022-10-22T15:44:56;19.50;99.90
38941;DHT22;43236;47.208;7.518;2022-10-22T15:47:44;19.50;99.90
38941;DHT22;43236;47.208;7.518;2022-10-22T15:50:36;19.40;99.90
38941;DHT22;43236;47.208;7.518;2022-10-22T15:53:25;19.40;99.90
38941;DHT22;43236;47.208;7.518;2022-10-22T15:56:12;19.40;99.90
38941;DHT22;43236;47.208;7.518;2022-10-22T15:59:00;19.30;99.90
38941;DHT22;43236;47.208;7.518;2022-10-22T16:01:49;19.30;99.90
38941;DHT22;43236;47.208;7.518;2022-10-22T16:04:36;19.20;99.90
38941;DHT22;43236;47.208;7.518;2022-10-22T16:07:24;19.20;99.90
38941;DHT22;43236;47.208;7.518;2022-10-22T16:10:12;19.10;99.90
38941;DHT22;43236;47.208;7.518;2022-10-22T16:13:00;19.10;99.90
38941;DHT22;43236;47.208;7.518;2022-10-22T16:15:48;19.00;99.90
38941;DHT22;43236;47.208;7.518;2022-10-22T16:18:36;19.00;99.90
38941;DHT22;43236;47.208;7.518;2022-10-22T16:21:25;18.90;99.90
38941;DHT22;43236;47.208;7.518;2022-10-22T16:24:12;18.90;99.90
38941;DHT22;43236;47.208;7.518;2022-10-22T16:27:01;18.80;99.90
38941;DHT22;43236;47.208;7.518;2022-10-22T16:29:48;18.80;99.90
38941;DHT22;43236;47.208;7.518;2022-10-22T16:32:35;18.80;99.90
38941;DHT22;43236;47.208;7.518;2022-10-22T16:35:22;18.80;99.90
38941;DHT22;43236;47.208;7.518;2022-10-22T16:38:10;18.70;99.90
38941;DHT22;43236;47.208;7.518;2022-10-22T16:41:06;18.60;99.90
38941;DHT22;43236;47.208;7.518;2022-10-22T16:43:55;18.60;99.90
38941;DHT22;43236;47.208;7.518;2022-10-22T16:46:45;18.60;99.90
38941;DHT22;43236;47.208;7.518;2022-10-22T16:49:32;18.50;99.90
38941;DHT22;43236;47.208;7.518;2022-10-22T16:52:20;18.50;99.90
38941;DHT22;43236;47.208;7.518;2022-10-22T16:55:08;18.50;99.90
38941;DHT22;43236;47.208;7.518;2022-10-22T16:57:55;18.40;99.90
38941;DHT22;43236;47.208;7.518;2022-10-22T17:00:43;18.40;99.90
38941;DHT22;43236;47.208;7.518;2022-10-22T17:03:31;18.50;99.90
38941;DHT22;43236;47.208;7.518;2022-10-22T17:06:18;18.40;99.90
38941;DHT22;43236;47.208;7.518;2022-10-22T17:09:05;18.40;99.90
38941;DHT22;43236;47.208;7.518;2022-10-22T17:11:52;18.30;99.90
38941;DHT22;43236;47.208;7.518;2022-10-22T17:14:40;18.30;99.90
38941;DHT22;43236;47.208;7.518;2022-10-22T17:17:28;18.20;99.90
38941;DHT22;43236;47.208;7.518;2022-10-22T17:20:15;18.20;99.90
38941;DHT22;43236;47.208;7.518;2022-10-22T17:23:03;18.20;99.90
38941;DHT22;43236;47.208;7.518;2022-10-22T17:25:56;18.20;99.90
38941;DHT22;43236;47.208;7.518;2022-10-22T17:28:44;18.10;99.90
38941;DHT22;43236;47.208;7.518;2022-10-22T17:31:33;18.00;99.90
38941;DHT22;43236;47.208;7.518;2022-10-22T17:34:23;18.00;99.90
38941;DHT22;43236;47.208;7.518;2022-10-22T17:37:11;17.90;99.90
38941;DHT22;43236;47.208;7.518;2022-10-22T17:39:59;17.90;99.90
38941;DHT22;43236;47.208;7.518;2022-10-22T17:42:47;17.80;99.90
38941;DHT22;43236;47.208;7.518;2022-10-22T17:45:34;17.80;99.90
38941;DHT22;43236;47.208;7.518;2022-10-22T17:48:21;17.80;99.90
38941;DHT22;43236;47.208;7.518;2022-10-22T17:51:11;17.80;99.90